createdAt,value
2019-02-06T00:00:45.046Z,28.80
2019-02-06T00:03:15.281Z,28.40
2019-02-06T00:05:43.825Z,28.80
2019-02-06T00:08:12.428Z,29.23
2019-02-06T00:10:40.976Z,29.05
2019-02-06T00:13:09.433Z,31.45
2019-02-06T00:15:37.975Z,29.20
2019-02-06T00:18:07.143Z,30.50
2019-02-06T00:20:35.695Z,34.63
2019-02-06T00:23:04.583Z,36.15
2019-02-06T00:25:33.040Z,34.67
2019-02-06T00:28:01.521Z,41.58
2019-02-06T00:30:29.985Z,39.17
2019-02-06T00:32:58.598Z,41.45
2019-02-06T00:35:27.404Z,40.40
2019-02-06T00:37:56.040Z,35.10
2019-02-06T00:40:24.659Z,35.83
2019-02-06T00:42:53.209Z,39.03
2019-02-06T00:45:21.679Z,37.83
2019-02-06T00:47:50.148Z,35.73
2019-02-06T00:50:19.049Z,34.55
2019-02-06T00:52:47.932Z,41.20
2019-02-06T00:55:16.729Z,36.85
2019-02-06T00:57:45.297Z,38.45
2019-02-06T01:00:22.611Z,43.35
2019-02-06T01:02:52.705Z,35.52
2019-02-06T01:05:21.696Z,35.25
2019-02-06T01:07:50.614Z,31.20
2019-02-06T01:10:22.694Z,36.08
2019-02-06T01:12:51.363Z,32.83
2019-02-06T01:15:19.952Z,31.42
2019-02-06T01:17:48.509Z,32.10
2019-02-06T01:20:18.675Z,31.90
2019-02-06T01:22:47.294Z,36.88
2019-02-06T01:25:16.977Z,32.35
2019-02-06T01:27:45.642Z,33.70
2019-02-06T01:30:22.836Z,31.70
2019-02-06T01:32:51.696Z,29.15
2019-02-06T01:35:21.192Z,29.37
2019-02-06T01:37:49.941Z,30.05
2019-02-06T01:40:21.805Z,31.20
2019-02-06T01:42:50.424Z,24.10
2019-02-06T01:45:20.729Z,27.98
2019-02-06T01:47:49.324Z,30.27
2019-02-06T01:50:21.308Z,26.65
2019-02-06T01:52:49.835Z,24.70
2019-02-06T01:55:18.442Z,26.95
2019-02-06T01:57:46.969Z,32.83
2019-02-06T02:00:18.525Z,30.17
2019-02-06T02:02:47.413Z,26.42
2019-02-06T02:05:20.209Z,29.57
2019-02-06T02:07:49.992Z,29.90
2019-02-06T02:10:19.960Z,32.13
2019-02-06T02:12:51.696Z,25.48
2019-02-06T02:15:20.647Z,28.62
2019-02-06T02:17:49.506Z,27.93
2019-02-06T02:20:20.868Z,24.47
2019-02-06T02:22:49.551Z,28.40
2019-02-06T02:25:18.560Z,27.75
2019-02-06T02:27:47.146Z,26.93
2019-02-06T02:30:23.373Z,27.07
2019-02-06T02:32:52.199Z,28.02
2019-02-06T02:35:20.677Z,26.93
2019-02-06T02:37:49.198Z,28.20
2019-02-06T02:40:17.883Z,29.40
2019-02-06T02:42:46.801Z,27.27
2019-02-06T02:45:16.998Z,29.00
2019-02-06T02:47:45.994Z,32.53
2019-02-06T02:50:14.640Z,30.57
2019-02-06T02:52:43.295Z,25.37
2019-02-06T02:55:13.539Z,29.77
2019-02-06T02:57:42.325Z,28.55
2019-02-06T03:00:20.490Z,27.60
2019-02-06T03:02:59.732Z,30.02
2019-02-06T03:05:29.980Z,24.60
2019-02-06T03:07:58.593Z,29.60
2019-02-06T03:10:27.122Z,26.95
2019-02-06T03:12:55.676Z,24.10
2019-02-06T03:15:24.500Z,26.52
2019-02-06T03:17:52.966Z,25.60
2019-02-06T03:20:21.547Z,24.55
2019-02-06T03:22:50.028Z,22.67
2019-02-06T03:25:18.489Z,24.82
2019-02-06T03:27:47.029Z,27.50
2019-02-06T03:30:17.611Z,25.68
2019-02-06T03:32:46.343Z,25.43
2019-02-06T03:35:15.252Z,25.48
2019-02-06T03:37:44.027Z,26.05
2019-02-06T03:40:15.096Z,26.70
2019-02-06T03:42:43.784Z,26.48
2019-02-06T03:45:14.207Z,24.43
2019-02-06T03:47:42.802Z,30.65
2019-02-06T03:50:16.736Z,24.63
2019-02-06T03:52:48.060Z,25.52
2019-02-06T03:55:16.730Z,24.50
2019-02-06T03:57:45.289Z,27.40
2019-02-06T04:00:21.033Z,24.85
2019-02-06T04:02:49.491Z,19.00
2019-02-06T04:05:17.953Z,21.47
2019-02-06T04:07:46.465Z,16.63
2019-02-06T04:10:19.454Z,17.70
2019-02-06T04:12:48.076Z,16.10
2019-02-06T04:15:17.105Z,15.27
2019-02-06T04:17:45.694Z,14.07
2019-02-06T04:20:15.744Z,11.90
2019-02-06T04:22:44.543Z,11.60
2019-02-06T04:25:14.624Z,14.40
2019-02-06T04:27:43.324Z,8.73
2019-02-06T04:30:17.670Z,10.83
2019-02-06T04:32:46.544Z,11.83
2019-02-06T04:35:15.816Z,11.00
2019-02-06T04:37:44.524Z,8.70
2019-02-06T04:40:20.740Z,7.63
2019-02-06T04:42:49.752Z,7.53
2019-02-06T04:45:19.415Z,9.83
2019-02-06T04:47:48.012Z,8.37
2019-02-06T04:50:17.763Z,9.50
2019-02-06T04:52:46.454Z,7.73
2019-02-06T04:55:18.621Z,7.33
2019-02-06T04:57:47.456Z,11.13
2019-02-06T05:00:27.233Z,9.60
2019-02-06T05:02:55.795Z,8.83
2019-02-06T05:05:24.922Z,6.53
2019-02-06T05:07:53.432Z,8.03
2019-02-06T05:10:21.959Z,9.00
2019-02-06T05:12:50.392Z,11.23
2019-02-06T05:15:19.697Z,10.50
2019-02-06T05:17:48.208Z,9.57
2019-02-06T05:20:28.711Z,7.57
2019-02-06T05:22:57.261Z,8.57
2019-02-06T05:25:26.482Z,8.37
2019-02-06T05:27:55.077Z,11.43
2019-02-06T05:30:23.697Z,6.90
2019-02-06T05:32:52.234Z,6.97
2019-02-06T05:35:20.793Z,18.83
2019-02-06T05:37:49.257Z,14.00
2019-02-06T05:40:18.195Z,19.57
2019-02-06T05:42:47.115Z,14.83
2019-02-06T05:45:16.279Z,9.87
2019-02-06T05:47:44.841Z,13.10
2019-02-06T05:50:15.545Z,15.23
2019-02-06T05:52:44.192Z,15.00
2019-02-06T05:55:14.268Z,12.03
2019-02-06T05:57:43.105Z,10.57
2019-02-06T06:00:24.945Z,12.63
2019-02-06T06:02:53.624Z,10.03
2019-02-06T06:05:22.119Z,7.80
2019-02-06T06:07:50.844Z,10.63
2019-02-06T06:10:19.667Z,7.33
2019-02-06T06:12:48.393Z,8.17
2019-02-06T06:15:19.518Z,7.73
2019-02-06T06:17:48.017Z,8.83
2019-02-06T06:20:20.741Z,9.37
2019-02-06T06:22:49.564Z,13.87
2019-02-06T06:25:19.870Z,6.03
2019-02-06T06:27:48.665Z,9.83
2019-02-06T06:30:19.358Z,9.33
2019-02-06T06:32:48.008Z,7.00
2019-02-06T06:35:16.513Z,8.93
2019-02-06T06:37:57.081Z,7.70
2019-02-06T06:40:22.813Z,6.70
2019-02-06T06:42:51.581Z,6.37
2019-02-06T06:45:24.627Z,8.27
2019-02-06T06:47:53.294Z,8.10
2019-02-06T06:50:23.943Z,11.37
2019-02-06T06:52:52.727Z,19.03
2019-02-06T06:55:21.607Z,29.40
2019-02-06T06:57:50.131Z,13.23
2019-02-06T07:00:29.369Z,10.37
2019-02-06T07:02:58.629Z,9.30
2019-02-06T07:05:27.204Z,6.50
2019-02-06T07:07:55.876Z,8.37
2019-02-06T07:10:24.867Z,9.63
2019-02-06T07:12:53.500Z,8.00
2019-02-06T07:15:30.844Z,6.97
2019-02-06T07:17:59.458Z,7.10
2019-02-06T07:20:27.984Z,5.07
2019-02-06T07:22:56.507Z,6.67
2019-02-06T07:25:24.968Z,6.57
2019-02-06T07:27:53.413Z,8.60
2019-02-06T07:30:25.053Z,6.77
2019-02-06T07:32:53.636Z,5.73
2019-02-06T07:35:22.320Z,6.23
2019-02-06T07:37:50.842Z,6.73
2019-02-06T07:40:19.814Z,6.30
2019-02-06T07:42:48.380Z,6.97
2019-02-06T07:45:18.148Z,5.27
2019-02-06T07:47:47.044Z,7.43
2019-02-06T07:50:18.023Z,12.10
2019-02-06T07:52:46.547Z,7.47
2019-02-06T07:55:15.487Z,10.10
2019-02-06T07:57:44.076Z,7.37
2019-02-06T08:00:12.953Z,7.63
2019-02-06T08:02:41.552Z,5.00
2019-02-06T08:05:15.813Z,8.13
2019-02-06T08:07:44.429Z,8.03
2019-02-06T08:10:27.928Z,9.10
2019-02-06T08:12:56.554Z,8.53
2019-02-06T08:15:25.500Z,6.87
2019-02-06T08:17:54.116Z,7.00
2019-02-06T08:20:23.783Z,5.93
2019-02-06T08:22:52.704Z,6.50
2019-02-06T08:25:23.778Z,5.33
2019-02-06T08:27:52.513Z,6.43
2019-02-06T08:30:38.921Z,5.43
2019-02-06T08:33:07.516Z,6.40
2019-02-06T08:35:36.180Z,5.73
2019-02-06T08:38:05.136Z,5.60
2019-02-06T08:40:33.919Z,5.63
2019-02-06T08:43:08.408Z,5.57
2019-02-06T08:45:36.932Z,8.17
2019-02-06T08:48:05.444Z,7.87
2019-02-06T08:50:34.036Z,8.30
2019-02-06T08:53:02.476Z,6.47
2019-02-06T08:55:32.471Z,10.70
2019-02-06T08:58:01.906Z,5.47
2019-02-06T09:00:36.371Z,5.30
2019-02-06T09:03:06.020Z,5.13
2019-02-06T09:05:34.701Z,5.57
2019-02-06T09:08:03.906Z,5.27
2019-02-06T09:10:32.851Z,6.63
2019-02-06T09:13:01.607Z,7.03
2019-02-06T09:15:30.049Z,5.37
2019-02-06T09:17:59.208Z,5.10
2019-02-06T09:20:29.004Z,5.13
2019-02-06T09:22:58.104Z,7.17
2019-02-06T09:25:28.245Z,3.77
2019-02-06T09:27:58.270Z,7.10
2019-02-06T09:30:29.105Z,6.80
2019-02-06T09:32:57.976Z,5.67
2019-02-06T09:35:26.895Z,5.03
2019-02-06T09:37:55.642Z,8.53
2019-02-06T09:40:26.880Z,5.77
2019-02-06T09:42:55.392Z,5.80
2019-02-06T09:45:24.534Z,6.50
2019-02-06T09:47:53.048Z,4.63
2019-02-06T09:50:27.778Z,4.67
2019-02-06T09:52:56.354Z,5.10
2019-02-06T09:55:25.077Z,4.17
2019-02-06T09:57:53.661Z,4.37
2019-02-06T10:00:33.930Z,6.73
2019-02-06T10:03:02.876Z,5.93
2019-02-06T10:05:31.483Z,5.30
2019-02-06T10:08:00.143Z,4.57
2019-02-06T10:10:29.619Z,7.37
2019-02-06T10:12:58.214Z,6.03
2019-02-06T10:15:29.144Z,7.40
2019-02-06T10:17:58.516Z,5.97
2019-02-06T10:20:29.992Z,5.83
2019-02-06T10:22:58.687Z,5.27
2019-02-06T10:25:27.251Z,6.77
2019-02-06T10:27:56.050Z,5.43
2019-02-06T10:30:30.123Z,4.87
2019-02-06T10:32:59.072Z,12.83
2019-02-06T10:35:27.617Z,8.93
2019-02-06T10:37:56.215Z,7.03
2019-02-06T10:40:25.088Z,5.73
2019-02-06T10:42:53.579Z,6.23
2019-02-06T10:45:22.184Z,6.80
2019-02-06T10:47:50.748Z,7.30
2019-02-06T10:50:24.560Z,7.37
2019-02-06T10:52:53.065Z,7.80
2019-02-06T10:55:21.736Z,5.83
2019-02-06T10:57:50.313Z,6.73
2019-02-06T11:00:24.803Z,5.97
2019-02-06T11:02:53.772Z,8.10
2019-02-06T11:05:22.497Z,7.10
2019-02-06T11:07:51.567Z,8.33
2019-02-06T11:10:23.332Z,8.33
2019-02-06T11:12:51.840Z,7.93
2019-02-06T11:15:21.125Z,5.93
2019-02-06T11:17:50.485Z,7.33
2019-02-06T11:20:26.937Z,8.10
2019-02-06T11:22:55.429Z,6.67
2019-02-06T11:25:24.228Z,6.13
2019-02-06T11:27:52.932Z,4.27
2019-02-06T11:30:33.219Z,6.23
2019-02-06T11:33:01.870Z,4.63
2019-02-06T11:35:30.400Z,4.93
2019-02-06T11:37:58.919Z,5.57
2019-02-06T11:40:27.373Z,4.47
2019-02-06T11:42:55.864Z,5.93
2019-02-06T11:45:27.481Z,5.23
2019-02-06T11:47:55.916Z,7.33
2019-02-06T11:50:26.166Z,5.07
2019-02-06T11:52:54.676Z,4.17
2019-02-06T11:55:25.725Z,6.00
2019-02-06T11:57:54.324Z,5.30
2019-02-06T12:00:42.139Z,6.30
2019-02-06T12:03:10.817Z,7.07
2019-02-06T12:05:39.262Z,5.87
2019-02-06T12:08:07.894Z,6.30
2019-02-06T12:10:36.468Z,5.83
2019-02-06T12:13:05.824Z,7.27
2019-02-06T12:15:37.556Z,6.13
2019-02-06T12:18:06.001Z,5.27
2019-02-06T12:20:34.715Z,4.53
2019-02-06T12:23:03.461Z,7.00
2019-02-06T12:25:34.388Z,6.27
2019-02-06T12:28:04.969Z,6.33
2019-02-06T12:30:35.074Z,3.87
2019-02-06T12:33:03.958Z,5.73
2019-02-06T12:35:32.673Z,7.70
2019-02-06T12:38:01.448Z,5.50
2019-02-06T12:40:30.746Z,5.80
2019-02-06T12:42:59.420Z,6.57
2019-02-06T12:45:28.071Z,8.10
2019-02-06T12:47:56.786Z,5.13
2019-02-06T12:50:26.032Z,5.50
2019-02-06T12:52:57.272Z,5.43
2019-02-06T12:55:30.636Z,6.67
2019-02-06T12:57:59.093Z,5.80
2019-02-06T13:00:30.309Z,7.60
2019-02-06T13:03:00.030Z,5.63
2019-02-06T13:05:30.839Z,7.80
2019-02-06T13:07:59.515Z,6.10
2019-02-06T13:10:34.058Z,5.37
2019-02-06T13:12:58.410Z,5.83
2019-02-06T13:15:27.028Z,4.80
2019-02-06T13:17:55.911Z,5.33
2019-02-06T13:20:36.893Z,5.37
2019-02-06T13:23:06.282Z,6.13
2019-02-06T13:25:34.809Z,6.73
2019-02-06T13:28:03.813Z,4.53
2019-02-06T13:30:37.513Z,5.27
2019-02-06T13:33:07.657Z,5.37
2019-02-06T13:35:36.851Z,5.17
2019-02-06T13:38:05.636Z,6.10
2019-02-06T13:40:44.730Z,3.83
2019-02-06T13:43:05.645Z,4.30
2019-02-06T13:45:39.702Z,4.60
2019-02-06T13:48:08.242Z,4.10
2019-02-06T13:50:37.003Z,3.70
2019-02-06T13:53:05.788Z,5.33
2019-02-06T13:55:34.363Z,6.10
2019-02-06T13:58:02.888Z,3.60
2019-02-06T14:00:33.764Z,5.73
2019-02-06T14:03:02.442Z,4.67
2019-02-06T14:05:32.585Z,4.83
2019-02-06T14:08:03.784Z,4.23
2019-02-06T14:10:32.760Z,4.07
2019-02-06T14:13:02.067Z,3.77
2019-02-06T14:15:36.216Z,4.60
2019-02-06T14:18:05.317Z,4.20
2019-02-06T14:20:33.887Z,3.77
2019-02-06T14:23:05.574Z,4.30
2019-02-06T14:25:43.452Z,4.43
2019-02-06T14:28:17.745Z,5.73
2019-02-06T14:31:05.968Z,4.13
2019-02-06T14:33:55.659Z,4.87
2019-02-06T14:36:41.820Z,4.07
2019-02-06T14:39:37.574Z,3.83
2019-02-06T14:42:32.992Z,4.73
2019-02-06T14:45:10.204Z,4.37
2019-02-06T14:47:41.721Z,3.47
2019-02-06T14:50:28.236Z,4.03
2019-02-06T14:53:16.170Z,3.60
2019-02-06T14:56:04.107Z,3.00
2019-02-06T14:58:56.845Z,2.37
2019-02-06T15:01:54.124Z,2.20
2019-02-06T15:04:46.777Z,3.77
2019-02-06T15:07:36.661Z,3.90
2019-02-06T15:10:23.186Z,2.60
2019-02-06T15:13:03.562Z,5.80
2019-02-06T15:15:43.833Z,5.43
2019-02-06T15:18:34.740Z,3.83
2019-02-06T15:21:22.800Z,4.73
2019-02-06T15:24:18.501Z,5.93
2019-02-06T15:26:59.139Z,2.67
2019-02-06T15:29:36.399Z,4.37
2019-02-06T15:32:10.889Z,4.90
2019-02-06T15:35:06.860Z,3.90
2019-02-06T15:37:47.225Z,4.37
2019-02-06T15:40:33.917Z,2.87
2019-02-06T15:43:11.464Z,4.50
2019-02-06T15:46:04.165Z,5.90
2019-02-06T15:48:35.719Z,3.93
2019-02-06T15:51:10.101Z,2.57
2019-02-06T15:53:41.645Z,2.90
2019-02-06T15:56:18.939Z,4.37
2019-02-06T15:59:15.005Z,6.57
2019-02-06T16:02:19.856Z,4.07
2019-02-06T16:05:01.289Z,4.77
2019-02-06T16:07:35.723Z,6.00
2019-02-06T16:10:24.924Z,2.90
2019-02-06T16:13:05.287Z,18.67
2019-02-06T16:15:39.520Z,5.27
2019-02-06T16:18:16.565Z,5.83
2019-02-06T16:20:49.953Z,5.27
2019-02-06T16:23:47.359Z,3.30
2019-02-06T16:26:24.857Z,3.83
2019-02-06T16:29:05.196Z,2.90
2019-02-06T16:31:53.122Z,4.83
2019-02-06T16:34:39.348Z,5.30
2019-02-06T16:37:25.755Z,2.70
2019-02-06T16:40:15.498Z,4.30
2019-02-06T16:42:52.724Z,3.20
2019-02-06T16:45:33.265Z,2.90
2019-02-06T16:48:22.933Z,2.90
2019-02-06T16:51:00.431Z,3.50
2019-02-06T16:54:00.875Z,3.60
2019-02-06T16:56:48.874Z,4.27
2019-02-06T16:59:26.125Z,3.77
2019-02-06T17:02:13.065Z,4.80
2019-02-06T17:05:08.913Z,3.20
2019-02-06T17:07:40.534Z,3.53
2019-02-06T17:10:33.150Z,2.60
2019-02-06T17:13:38.469Z,2.97
2019-02-06T17:16:31.029Z,3.17
2019-02-06T17:19:02.904Z,2.67
2019-02-06T17:21:46.404Z,3.50
2019-02-06T17:24:20.903Z,4.27
2019-02-06T17:26:55.693Z,5.30
2019-02-06T17:29:36.264Z,3.67
2019-02-06T17:32:16.648Z,4.77
2019-02-06T17:34:51.233Z,3.10
2019-02-06T17:37:37.775Z,7.03
2019-02-06T17:40:30.496Z,6.63
2019-02-06T17:43:07.577Z,22.43
2019-02-06T17:45:41.841Z,4.47
2019-02-06T17:48:22.431Z,4.33
2019-02-06T17:51:00.167Z,7.60
2019-02-06T17:53:40.430Z,4.00
2019-02-06T17:56:09.959Z,3.27
2019-02-06T17:58:41.342Z,3.60
2019-02-06T18:01:13.426Z,3.60
2019-02-06T18:03:44.200Z,7.97
2019-02-06T18:06:14.108Z,6.30
2019-02-06T18:08:42.608Z,5.07
2019-02-06T18:11:11.323Z,4.23
2019-02-06T18:13:39.864Z,3.90
2019-02-06T18:16:08.700Z,4.60
2019-02-06T18:18:37.235Z,2.90
2019-02-06T18:21:05.941Z,4.27
2019-02-06T18:23:34.686Z,4.87
2019-02-06T18:26:03.388Z,4.67
2019-02-06T18:28:31.907Z,4.17
2019-02-06T18:31:00.416Z,4.33
2019-02-06T18:33:30.255Z,6.37
2019-02-06T18:35:58.883Z,6.73
2019-02-06T18:38:27.337Z,6.23
2019-02-06T18:40:55.920Z,6.27
2019-02-06T18:43:25.647Z,4.70
2019-02-06T18:45:54.296Z,6.37
2019-02-06T18:48:25.072Z,7.37
2019-02-06T18:50:54.755Z,7.30
2019-02-06T18:53:23.292Z,6.63
2019-02-06T18:55:51.801Z,5.87
2019-02-06T18:58:20.400Z,4.90
2019-02-06T19:00:49.023Z,8.53
2019-02-06T19:03:26.634Z,5.73
2019-02-06T19:05:54.309Z,9.70
2019-02-06T19:08:23.056Z,7.10
2019-02-06T19:10:51.947Z,6.90
2019-02-06T19:13:20.902Z,7.10
2019-02-06T19:15:56.186Z,8.30
2019-02-06T19:18:19.676Z,8.33
2019-02-06T19:20:48.293Z,8.60
2019-02-06T19:23:16.865Z,11.53
2019-02-06T19:25:45.466Z,10.03
2019-02-06T19:28:14.372Z,11.23
2019-02-06T19:30:46.710Z,8.87
2019-02-06T19:33:17.135Z,9.27
2019-02-06T19:35:45.466Z,13.40
2019-02-06T19:38:14.001Z,11.13
2019-02-06T19:40:42.539Z,8.73
2019-02-06T19:43:11.045Z,11.50
2019-02-06T19:45:40.114Z,10.23
2019-02-06T19:48:15.779Z,10.93
2019-02-06T19:50:42.077Z,10.47
2019-02-06T19:53:10.666Z,8.37
2019-02-06T19:55:39.270Z,8.43
2019-02-06T19:58:09.127Z,8.60
2019-02-06T20:00:37.907Z,9.03
2019-02-06T20:03:08.574Z,8.77
2019-02-06T20:05:37.224Z,9.00
2019-02-06T20:08:07.191Z,10.77
2019-02-06T20:10:44.797Z,11.00
2019-02-06T20:13:14.597Z,10.27
2019-02-06T20:15:43.409Z,9.60
2019-02-06T20:18:12.320Z,9.97
2019-02-06T20:20:40.834Z,11.47
2019-02-06T20:23:09.705Z,10.00
2019-02-06T20:25:38.279Z,10.07
2019-02-06T20:28:06.885Z,8.87
2019-02-06T20:30:35.403Z,10.93
2019-02-06T20:33:04.281Z,10.00
2019-02-06T20:35:33.088Z,11.97
2019-02-06T20:38:01.554Z,9.00
2019-02-06T20:40:35.417Z,11.33
2019-02-06T20:43:04.498Z,13.00
2019-02-06T20:45:33.077Z,14.30
2019-02-06T20:48:01.771Z,14.20
2019-02-06T20:50:32.351Z,13.57
2019-02-06T20:53:01.520Z,11.03
2019-02-06T20:55:30.031Z,12.57
2019-02-06T20:57:58.652Z,13.63
2019-02-06T21:00:29.977Z,13.17
2019-02-06T21:02:58.771Z,14.93
2019-02-06T21:05:27.452Z,12.30
2019-02-06T21:07:56.232Z,15.67
2019-02-06T21:10:30.141Z,13.73
2019-02-06T21:12:58.840Z,15.70
2019-02-06T21:15:27.442Z,16.47
2019-02-06T21:17:55.933Z,13.53
2019-02-06T21:20:25.201Z,13.40
2019-02-06T21:22:55.785Z,14.23
2019-02-06T21:25:26.429Z,15.00
2019-02-06T21:27:55.016Z,18.27
2019-02-06T21:30:38.156Z,15.00
2019-02-06T21:33:06.734Z,13.07
2019-02-06T21:35:35.349Z,15.67
2019-02-06T21:38:04.229Z,13.07
2019-02-06T21:40:37.052Z,13.20
2019-02-06T21:43:06.708Z,15.80
2019-02-06T21:45:35.615Z,13.20
2019-02-06T21:48:05.746Z,14.90
2019-02-06T21:50:34.409Z,15.23
2019-02-06T21:53:02.989Z,14.43
2019-02-06T21:55:31.436Z,13.43
2019-02-06T21:58:00.042Z,14.00
2019-02-06T22:00:34.182Z,14.33
2019-02-06T22:03:02.705Z,14.33
2019-02-06T22:05:31.620Z,14.90
2019-02-06T22:08:00.233Z,12.33
2019-02-06T22:10:28.736Z,15.27
2019-02-06T22:12:57.338Z,15.27
2019-02-06T22:15:28.447Z,15.07
2019-02-06T22:17:56.971Z,15.93
2019-02-06T22:20:25.962Z,14.17
2019-02-06T22:22:54.480Z,12.07
2019-02-06T22:25:23.167Z,13.70
2019-02-06T22:27:51.730Z,13.93
2019-02-06T22:30:22.729Z,14.60
2019-02-06T22:32:52.441Z,11.33
2019-02-06T22:35:21.429Z,14.33
2019-02-06T22:37:50.673Z,13.70
2019-02-06T22:40:21.053Z,12.33
2019-02-06T22:42:49.802Z,14.10
2019-02-06T22:45:22.872Z,12.40
2019-02-06T22:47:51.627Z,14.23
2019-02-06T22:50:23.070Z,11.30
2019-02-06T22:52:52.176Z,11.77
2019-02-06T22:55:20.776Z,13.47
2019-02-06T22:57:49.452Z,12.53
2019-02-06T23:00:46.818Z,12.80
2019-02-06T23:03:17.934Z,13.73
2019-02-06T23:05:49.568Z,15.33
2019-02-06T23:08:18.148Z,14.00
2019-02-06T23:10:46.760Z,13.53
2019-02-06T23:13:15.768Z,12.53
2019-02-06T23:15:46.298Z,12.70
2019-02-06T23:18:15.001Z,16.10
2019-02-06T23:20:43.472Z,13.40
2019-02-06T23:23:12.136Z,11.20
2019-02-06T23:25:43.123Z,11.17
2019-02-06T23:28:11.005Z,12.47
2019-02-06T23:30:39.581Z,11.17
2019-02-06T23:33:08.149Z,12.63
2019-02-06T23:35:36.655Z,11.63
2019-02-06T23:38:05.253Z,11.03
2019-02-06T23:40:33.696Z,12.83
2019-02-06T23:43:02.773Z,11.20
2019-02-06T23:45:31.214Z,12.37
2019-02-06T23:47:59.710Z,15.03
2019-02-06T23:50:28.229Z,11.60
2019-02-06T23:52:56.779Z,13.63
2019-02-06T23:55:25.293Z,11.30
2019-02-06T23:57:53.751Z,11.90
